関西国際空港の過去48時間の天気

関西国際空港 (Kansai intl)

現在時刻: 10/24 12:07 JST (10/24 03:07 UTC) 以下の時間は現地時間です。

過去48時間のMETAR気象情報
時間 風向 風速(m/s) 視程 気温(℃) 湿度(%) 気圧(hPa) 天気現象
24 11:30 3 10km以上 21 83 1016 弱いしゅう雨
24 11:00 3 10km以上 21 83 1016 弱いしゅう雨
24 10:30 東北東 4 10km以上 21 83 1016 弱いしゅう雨
24 10:00 東北東 4 10km以上 20 88 1017 弱いしゅう雨
24 09:30 東北東 5 10km以上 20 88 1017 弱いしゅう雨
24 09:00 東北東 6 10km以上 20 88 1017
24 08:30 東北東 7 10km以上 20 88 1017
24 08:00 北東 7 10km以上 20 88 1017
24 07:30 東北東 6 10km以上 19 94 1017 周辺でしゅう雨
24 07:00 東北東 6 10km以上 19 88 1017 周辺でしゅう雨
24 06:30 東北東 4 10km以上 19 88 1017 弱いしゅう雨
24 06:00 5 10km以上 19 88 1017 弱いしゅう雨
24 05:30 5 10km以上 20 83 1017 弱い雨
24 05:12 5 8000m 19 83 1017 弱い雨
24 05:06 4 900m 20 83 1017 弱い雨 もや
24 05:00 3 10km以上 20 78 1017
24 04:30 4 10km以上 20 78 1017
24 04:00 東北東 4 10km以上 20 78 1017
24 03:30 東北東 5 10km以上 20 78 1017
24 03:00 東北東 5 10km以上 20 78 1017
24 02:30 東北東 4 10km以上 20 78 1017
24 02:00 東北東 3 10km以上 20 78 1017
24 01:00 東北東 3 10km以上 20 78 1017
24 00:30 2 10km以上 20 78 1018
24 00:00 2 10km以上 21 73 1018
23 23:30 2 10km以上 21 73 1017
23 23:00 東北東 3 10km以上 20 78 1017
23 22:30 3 10km以上 21 73 1017
23 22:00 3 10km以上 21 73 1017
23 21:30 東南東 2 10km以上 21 73 1017
23 21:00 2 10km以上 21 83 1017
23 20:30 南南東 2 10km以上 21 78 1017
23 20:00 東南東 2 10km以上 21 83 1017
23 19:30 北東 5 10km以上 22 78 1016
23 19:00 3 10km以上 22 78 1017
23 18:30 2 10km以上 21 78 1016
23 18:00 北北西 2 10km以上 22 73 1016
23 17:30 北北西 3 10km以上 22 73 1016
23 17:00 北北西 4 10km以上 22 73 1015
23 16:30 北西 4 10km以上 22 73 1015
23 16:00 北西 5 10km以上 22 69 1015
23 15:30 西北西 5 10km以上 23 65 1015
23 15:00 西北西 4 10km以上 23 61 1015
23 14:30 北西 4 10km以上 23 61 1015
23 14:00 北西 4 10km以上 23 61 1015
23 13:30 北西 4 10km以上 23 61 1015
23 13:00 北北西 3 10km以上 24 54 1015
23 12:30 4 10km以上 23 61 1015
23 12:00 4 10km以上 23 57 1015
23 11:30 北北東 5 10km以上 23 65 1015
23 11:00 北北東 4 10km以上 22 69 1016
23 10:30 北北東 3 10km以上 22 69 1016
23 10:00 北北東 3 10km以上 21 69 1017
23 09:30 北東 4 10km以上 22 69 1016
23 09:00 東北東 3 10km以上 21 73 1016
23 08:30 北東 3 10km以上 20 78 1016
23 08:00 東北東 3 10km以上 20 78 1016
23 07:30 東北東 3 10km以上 19 83 1016
23 07:00 東北東 3 10km以上 19 83 1016
23 06:30 東北東 4 10km以上 19 88 1015
23 06:00 3 10km以上 18 88 1015
23 05:30 東南東 2 10km以上 19 88 1015
23 05:00 2 10km以上 19 83 1015
23 04:30 北北西 4 10km以上 19 88 1015
23 04:00 北北西 5 10km以上 19 83 1014
23 03:30 北北西 6 10km以上 19 83 1014
RJBB 240230Z 08005KT 9999 -SHRA FEW008 SCT045 BKN080 21/18 Q1016 NOSIG
RJBB 240200Z 08005KT 9999 -SHRA FEW008 BKN045 BKN080 21/18 Q1016 NOSIG
RJBB 240130Z 06008KT 9999 -SHRA FEW008 SCT045 BKN080 21/18 Q1016 NOSIG
RJBB 240100Z 07007KT 9999 -SHRA FEW008 SCT045 BKN080 20/18 Q1017 NOSIG
RJBB 240030Z 07010KT 9999 -SHRA FEW008 SCT045 BKN080 20/18 Q1017 NOSIG
RJBB 240000Z 07011KT 9999 FEW008 SCT080 BKN120 20/18 Q1017 NOSIG
RJBB 232330Z 06013KT 9999 FEW006 SCT080 BKN120 20/18 Q1017 NOSIG
RJBB 232300Z 04014KT 9999 FEW006 SCT080 BKN120 20/18 Q1017 NOSIG
RJBB 232230Z 06012KT 9999 VCSH FEW008 SCT080 BKN120 19/18 Q1017 NOSIG
RJBB 232200Z 06012KT 9999 VCSH FEW008 SCT040 BKN080 19/17 Q1017 NOSIG
RJBB 232130Z 06008KT 9999 -SHRA FEW015 BKN040 BKN080 19/17 Q1017 NOSIG
RJBB 232100Z 08009KT 9999 -SHRA FEW015 SCT030 BKN045 19/17 Q1017 NOSIG
RJBB 232030Z AUTO 09009KT 9999 -RA FEW016 SCT047 BKN050 20/17 Q1017 NOSIG
RJBB 232012Z AUTO 08010KT 8000 R06R/P2000N R06L/2000N -RA FEW016 BKN050 OVC140 19/16 Q1017 RMK A3005
RJBB 232006Z AUTO 08008KT 0900 R06R/1500VP2000N R06L/2000N -RA BR BKN050 BKN060 OVC140 20/17 Q1017 RMK A3005
RJBB 232000Z AUTO 08006KT 9999 SCT050 BKN060 OVC140 20/16 Q1017 NOSIG
RJBB 231930Z AUTO 08008KT 9999 NSC 20/16 Q1017 NOSIG
RJBB 231900Z AUTO 07008KT 9999 NSC 20/16 Q1017 NOSIG
RJBB 231830Z AUTO 07009KT 9999 NSC 20/16 Q1017 NOSIG
RJBB 231800Z AUTO 06010KT 9999 NSC 20/16 Q1017 NOSIG
RJBB 231730Z AUTO 07008KT 9999 NSC 20/16 Q1017 NOSIG
RJBB 231700Z AUTO 06006KT 9999 NSC 20/16 Q1017 NOSIG
RJBB 231600Z AUTO 07005KT 9999 NSC 20/16 Q1017 NOSIG
RJBB 231530Z AUTO 08004KT 9999 NSC 20/16 Q1018 NOSIG
RJBB 231500Z AUTO 08003KT 030V100 9999 FEW038 SCT042 BKN048 21/16 Q1018 NOSIG
RJBB 231430Z AUTO 10004KT 9999 NSC 21/16 Q1017 NOSIG
RJBB 231400Z AUTO 07006KT 9999 BKN045 BKN140 BKN160 20/16 Q1017 NOSIG
RJBB 231330Z 08006KT 9999 FEW020 SCT050 BKN/// 21/16 Q1017 NOSIG
RJBB 231300Z 08006KT 9999 FEW020 SCT050 BKN/// 21/16 Q1017 NOSIG
RJBB 231230Z 11004KT 9999 FEW020 SCT140 BKN/// 21/16 Q1017 NOSIG
RJBB 231200Z 10003KT 070V130 9999 FEW020 SCT140 BKN/// 21/18 Q1017 NOSIG
RJBB 231130Z 15003KT 070V180 9999 FEW020 SCT140 BKN/// 21/17 Q1017 BECMG 08005KT
RJBB 231100Z 11004KT 050V160 9999 FEW020 SCT120 BKN/// 21/18 Q1017 NOSIG
RJBB 231030Z 05009KT 9999 FEW020 SCT120 BKN/// 22/18 Q1016 NOSIG
RJBB 231000Z 08005KT 040V130 9999 FEW020 SCT050 BKN/// 22/18 Q1017 NOSIG
RJBB 230930Z 01004KT 9999 FEW020 SCT050 BKN/// 21/17 Q1016 NOSIG
RJBB 230900Z 34004KT 290V030 9999 FEW020 SCT050 BKN/// 22/17 Q1016 NOSIG
RJBB 230830Z 33006KT 9999 FEW020 SCT050 BKN/// 22/17 Q1016 NOSIG
RJBB 230800Z 33007KT 9999 FEW020 SCT050 BKN080 22/17 Q1015 NOSIG
RJBB 230730Z 31007KT 9999 FEW020 SCT050 BKN/// 22/17 Q1015 BECMG 01013KT
RJBB 230700Z 31010KT 9999 FEW020 SCT050 BKN/// 22/16 Q1015 BECMG 01013KT
RJBB 230630Z 30009KT 9999 FEW020 SCT050 BKN/// 23/16 Q1015 BECMG 01008KT
RJBB 230600Z 30008KT 9999 FEW020 SCT050 BKN/// 23/15 Q1015 NOSIG
RJBB 230530Z 31007KT 9999 FEW020 BKN/// 23/15 Q1015 NOSIG
RJBB 230500Z 31007KT 9999 FEW020 BKN/// 23/15 Q1015 NOSIG
RJBB 230430Z 31008KT 9999 FEW015 BKN/// 23/15 Q1015 NOSIG
RJBB 230400Z 33006KT 9999 FEW015 BKN/// 24/14 Q1015 BECMG 30005KT
RJBB 230330Z 36007KT 9999 FEW015 BKN/// 23/15 Q1015 NOSIG
RJBB 230300Z 01007KT 9999 FEW015 BKN/// 23/14 Q1015 NOSIG
RJBB 230230Z 02009KT 9999 FEW015 BKN/// 23/16 Q1015 NOSIG
RJBB 230200Z 02007KT 9999 FEW015 BKN/// 22/16 Q1016 NOSIG
RJBB 230130Z 02006KT 9999 FEW015 BKN/// 22/16 Q1016 NOSIG
RJBB 230100Z 03006KT 9999 FEW015 BKN/// 21/15 Q1017 NOSIG
RJBB 230030Z 04007KT 9999 FEW015 BKN/// 22/16 Q1016 NOSIG
RJBB 230000Z 07006KT 9999 FEW015 BKN/// 21/16 Q1016 NOSIG
RJBB 222330Z 05006KT 9999 FEW015 BKN/// 20/16 Q1016 NOSIG
RJBB 222300Z 06006KT 020V090 9999 FEW015 SCT/// 20/16 Q1016 NOSIG
RJBB 222230Z 07006KT 9999 FEW015 SCT/// 19/16 Q1016 NOSIG
RJBB 222200Z 06006KT 9999 FEW015 SCT/// 19/16 Q1016 NOSIG
RJBB 222130Z 06008KT 9999 FEW015 BKN/// 19/17 Q1015 NOSIG
RJBB 222100Z 10005KT 9999 FEW015 18/16 Q1015 NOSIG
RJBB 222030Z AUTO 11004KT 9999 FEW023 19/17 Q1015 NOSIG
RJBB 222000Z AUTO 01004KT 340V060 9999 NCD 19/16 Q1015 NOSIG
RJBB 221930Z AUTO 34008KT 9999 NCD 19/17 Q1015 NOSIG
RJBB 221900Z AUTO 34009KT 9999 NCD 19/16 Q1014 NOSIG
RJBB 221830Z AUTO 33011KT 9999 NCD 19/16 Q1014 NOSIG